Terminal Aerodrome Forecast
Issued by NWS

Home | Current Version | Previous Version | Text Only | Print | Product List | Glossary On
Versions: 1 2 3 4 5 6 7 8 9 10 11 12 13
000
FTUS45 KTFX 231720
TAFHVR
TAF
KHVR 231720Z 2318/2418 03009KT P6SM FEW050 SCT200
      TEMPO 2318/2322 BKN050 BKN060
     FM240300 VRB05KT P6SM SKC
     FM241700 21009KT P6SM SKC=

USA.gov is the U.S. government's official web portal to all federal, state and local government web resources and services.